Time;durP1;ratioP1;P1;durP2;ratioP2;P2;SDS_P1;SDS_P2;PMS_P1;PMS_P2;Temp;Humidity;BMP_temperature;BMP_pressure;BME280_temperature;BME280_humidity;BME280_pressure;Samples;Min_cycle;Max_cycle;Signal;HPM_P1;HPM_P2
2020/12/05 00:02:13;;;;;;;38.15;23.48;;;;;;;1.12;100.00;98408.28;5213428;28;20020;-76
2020/12/05 00:04:45;;;;;;;37.95;23.48;;;;;;;1.23;100.00;98417.31;5219943;28;20398;-76
2020/12/05 00:07:15;;;;;;;39.22;23.15;;;;;;;1.31;100.00;98433.38;5222772;28;20033;-76
2020/12/05 00:09:45;;;;;;;37.85;22.88;;;;;;;1.08;100.00;98446.13;5222890;28;20394;-76
2020/12/05 00:12:15;;;;;;;37.83;22.70;;;;;;;1.06;100.00;98447.91;5222507;28;20025;-76
2020/12/05 00:14:46;;;;;;;38.83;23.08;;;;;;;1.01;100.00;98456.63;5222962;28;20025;-76
2020/12/05 00:17:16;;;;;;;37.80;22.05;;;;;;;0.95;100.00;98452.56;5222509;28;20032;-76
2020/12/05 00:19:46;;;;;;;36.75;22.17;;;;;;;0.80;100.00;98435.03;5222955;28;20429;-76
2020/12/05 00:22:17;;;;;;;39.00;22.85;;;;;;;1.04;100.00;98413.69;5222225;28;20067;-75
2020/12/05 00:24:47;;;;;;;40.40;23.98;;;;;;;1.20;99.93;98435.44;5222691;28;20074;-76
2020/12/05 00:27:20;;;;;;;36.00;22.15;;;;;;;1.02;100.00;98440.31;5222625;28;20037;-76
2020/12/05 00:29:51;;;;;;;44.33;23.63;;;;;;;1.25;100.00;98420.69;5222204;28;20104;-76
2020/12/05 00:32:21;;;;;;;39.42;23.10;;;;;;;1.17;100.00;98427.81;5222622;28;20108;-76
2020/12/05 00:34:52;;;;;;;41.13;24.10;;;;;;;0.99;100.00;98443.84;5221767;28;20144;-76
2020/12/05 00:37:22;;;;;;;37.95;23.67;;;;;;;0.95;100.00;98441.41;5222133;28;20498;-76
2020/12/05 00:39:52;;;;;;;36.92;22.02;;;;;;;1.06;100.00;98441.94;5221959;28;20715;-76
2020/12/05 00:42:24;;;;;;;35.45;22.13;;;;;;;1.16;100.00;98445.88;5222265;28;20108;-75
2020/12/05 00:44:54;;;;;;;38.80;23.02;;;;;;;1.13;100.00;98449.41;5222349;28;20036;-75
2020/12/05 00:47:28;;;;;;;38.35;23.05;;;;;;;1.03;100.00;98447.16;5223614;28;20044;-77
2020/12/05 00:49:58;;;;;;;39.47;22.55;;;;;;;1.18;100.00;98436.38;5224002;28;20572;-77
2020/12/05 00:52:29;;;;;;;40.38;22.65;;;;;;;0.95;100.00;98434.56;5224156;28;20083;-77
2020/12/05 00:54:59;;;;;;;38.28;22.58;;;;;;;1.02;100.00;98430.91;5223989;28;20047;-78
2020/12/05 00:57:30;;;;;;;41.67;23.83;;;;;;;1.26;100.00;98419.78;5223314;28;20033;-77
2020/12/05 01:00:00;;;;;;;36.92;22.88;;;;;;;1.16;100.00;98435.59;5227354;28;20040;-77
2020/12/05 01:02:30;;;;;;;38.10;22.98;;;;;;;1.04;100.00;98439.38;5227901;28;20558;-77
2020/12/05 01:05:01;;;;;;;37.63;23.83;;;;;;;0.96;100.00;98425.09;5227917;28;20033;-78
2020/12/05 01:07:31;;;;;;;38.28;24.08;;;;;;;1.03;100.00;98437.72;5227360;28;20025;-76
2020/12/05 01:10:03;;;;;;;41.35;24.70;;;;;;;1.03;100.00;98444.59;5226771;28;20033;-78
2020/12/05 01:12:34;;;;;;;40.60;24.60;;;;;;;1.01;100.00;98454.91;5227790;28;20066;-77
2020/12/05 01:15:04;;;;;;;37.60;23.40;;;;;;;1.04;100.00;98456.56;5227551;28;20021;-77
2020/12/05 01:17:37;;;;;;;39.17;23.30;;;;;;;1.06;100.00;98472.78;5225881;28;20363;-77
2020/12/05 01:20:08;;;;;;;37.72;23.25;;;;;;;1.04;100.00;98472.00;5227792;28;20029;-77
2020/12/05 01:22:38;;;;;;;41.88;24.25;;;;;;;0.97;100.00;98473.06;5218660;28;20021;-77
2020/12/05 01:25:09;;;;;;;41.30;25.50;;;;;;;0.83;100.00;98468.34;5219455;28;20033;-77
2020/12/05 01:27:39;;;;;;;39.90;25.02;;;;;;;0.92;100.00;98480.91;5233905;28;20033;-77
2020/12/05 01:30:10;;;;;;;39.97;24.55;;;;;;;0.92;100.00;98475.75;5227203;28;20064;-77
2020/12/05 01:32:40;;;;;;;39.78;24.58;;;;;;;0.90;100.00;98472.41;5226801;28;20140;-77
2020/12/05 01:35:11;;;;;;;39.35;23.83;;;;;;;0.97;100.00;98463.63;5227370;28;20555;-78
2020/12/05 01:37:41;;;;;;;39.45;24.83;;;;;;;0.68;100.00;98461.09;5226539;28;20074;-77
2020/12/05 01:40:11;;;;;;;41.55;24.63;;;;;;;0.73;100.00;98463.53;5227369;28;20026;-78
2020/12/05 01:42:43;;;;;;;43.17;25.30;;;;;;;0.76;100.00;98471.16;5226678;28;20025;-77
2020/12/05 01:45:13;;;;;;;40.75;24.30;;;;;;;0.94;100.00;98476.59;5226829;28;20029;-77
2020/12/05 01:47:44;;;;;;;41.70;24.35;;;;;;;1.05;100.00;98481.38;5227150;28;20506;-77
2020/12/05 01:50:15;;;;;;;38.92;23.33;;;;;;;1.04;100.00;98482.28;5226432;28;20029;-77
2020/12/05 01:52:46;;;;;;;37.97;23.65;;;;;;;1.05;100.00;98471.09;5226817;28;20029;-77
2020/12/05 01:55:17;;;;;;;42.72;25.00;;;;;;;1.38;100.00;98464.88;5226337;28;20035;-77
2020/12/05 01:57:47;;;;;;;40.47;23.83;;;;;;;1.43;100.00;98458.66;5226504;28;20025;-78
2020/12/05 02:00:17;;;;;;;39.88;24.15;;;;;;;1.50;100.00;98455.00;5226545;28;20025;-77
2020/12/05 02:02:47;;;;;;;41.60;25.05;;;;;;;1.34;100.00;98448.69;5225938;28;20485;-78
2020/12/05 02:05:55;;;;;;;39.53;24.70;;;;;;;1.47;100.00;98460.25;5226475;28;20033;-77
2020/12/05 02:08:53;;;;;;;41.95;25.27;;;;;;;1.10;100.00;98457.19;5226727;28;20025;-76
2020/12/05 02:11:29;;;;;;;40.40;24.55;;;;;;;1.20;100.00;98455.19;5222354;28;20048;-76
2020/12/05 02:14:01;;;;;;;;;;;;;;;1.27;100.00;98452.34;5230257;28;20029;-77
2020/12/05 02:16:32;;;;;;;39.00;23.88;;;;;;;1.23;100.00;98465.38;5230220;28;19909;-76
2020/12/05 02:19:02;;;;;;;41.55;24.05;;;;;;;1.18;100.00;98467.22;5229220;28;20116;-77
2020/12/05 02:21:38;;;;;;;42.45;25.75;;;;;;;1.19;100.00;98472.34;5229674;28;20421;-77
2020/12/05 02:24:09;;;;;;;42.80;26.05;;;;;;;1.27;100.00;98478.06;5229058;28;20032;-76
2020/12/05 02:26:43;;;;;;;41.30;25.45;;;;;;;1.21;100.00;98474.88;5229464;28;20029;-77
2020/12/05 02:29:13;;;;;;;39.17;24.80;;;;;;;1.21;100.00;98478.25;5229332;28;20028;-76
2020/12/05 02:31:44;;;;;;;39.58;24.27;;;;;;;1.22;100.00;98473.97;5229645;28;20033;-77
2020/12/05 02:34:14;;;;;;;39.95;24.67;;;;;;;1.28;100.00;98469.47;5230192;28;20033;-77
2020/12/05 02:36:49;;;;;;;42.58;26.00;;;;;;;1.34;100.00;98484.72;5228542;28;20018;-77
2020/12/05 02:39:20;;;;;;;43.30;25.20;;;;;;;1.20;100.00;98481.72;5228275;28;20025;-77
2020/12/05 02:41:50;;;;;;;38.92;24.50;;;;;;;1.24;100.00;98482.47;5226288;28;20366;-77
2020/12/05 02:44:20;;;;;;;41.83;25.45;;;;;;;1.03;100.00;98478.84;5226920;28;20074;-77
2020/12/05 02:46:54;;;;;;;41.45;25.88;;;;;;;1.07;100.00;98485.56;5225131;28;20111;-77
2020/12/05 02:49:25;;;;;;;37.70;24.20;;;;;;;1.13;100.00;98480.25;5226428;28;20104;-77
2020/12/05 02:51:55;;;;;;;43.55;25.80;;;;;;;1.17;100.00;98480.97;5225223;28;20123;-77
2020/12/05 02:54:25;;;;;;;38.17;24.10;;;;;;;1.30;100.00;98475.41;5226482;28;20036;-77
2020/12/05 02:56:55;;;;;;;36.50;23.55;;;;;;;1.28;100.00;98448.91;5226523;28;20378;-77
2020/12/05 02:59:27;;;;;;;41.60;25.02;;;;;;;1.22;100.00;98437.97;5226042;28;20040;-78
2020/12/05 03:01:58;;;;;;;44.90;27.35;;;;;;;1.24;100.00;98441.34;5226058;28;20036;-77
2020/12/05 03:04:28;;;;;;;44.97;27.85;;;;;;;1.25;100.00;98440.44;5224346;28;20089;-77
2020/12/05 03:06:58;;;;;;;46.17;28.35;;;;;;;1.37;100.00;98435.72;5226397;28;20032;-78
2020/12/05 03:09:29;;;;;;;46.10;28.98;;;;;;;1.38;100.00;98419.41;5225182;28;20636;-77
2020/12/05 03:11:59;;;;;;;44.00;27.45;;;;;;;1.59;100.00;98439.25;5226212;28;20483;-78
2020/12/05 03:14:29;;;;;;;49.08;28.55;;;;;;;1.76;100.00;98472.16;5225929;28;20032;-77
2020/12/05 03:17:00;;;;;;;47.78;27.88;;;;;;;1.74;100.00;98469.59;5225879;28;20037;-77
2020/12/05 03:19:30;;;;;;;45.63;28.30;;;;;;;1.65;100.00;98441.63;5226377;28;20024;-77
2020/12/05 03:22:00;;;;;;;48.90;28.83;;;;;;;1.76;100.00;98454.94;5225431;28;20090;-77
2020/12/05 03:24:30;;;;;;;48.00;27.98;;;;;;;1.78;100.00;98443.72;5225678;28;20053;-77
2020/12/05 03:27:01;;;;;;;45.10;27.65;;;;;;;1.98;100.00;98456.72;5226100;28;20040;-78
2020/12/05 03:29:31;;;;;;;45.08;28.15;;;;;;;2.05;100.00;98465.94;5226142;28;20037;-78
2020/12/05 03:32:07;;;;;;;49.75;28.42;;;;;;;1.87;100.00;98470.88;5225108;28;20475;-76
2020/12/05 03:34:41;;;;;;;42.90;27.35;;;;;;;1.95;100.00;98445.69;5226382;28;20047;-77
2020/12/05 03:37:12;;;;;;;45.72;27.23;;;;;;;1.97;100.00;98415.59;5225722;28;20021;-78
2020/12/05 03:39:42;;;;;;;44.53;27.92;;;;;;;1.90;100.00;98414.97;5226078;28;20035;-78
2020/12/05 03:42:12;;;;;;;47.88;28.77;;;;;;;1.95;100.00;98412.22;5226975;28;20017;-78
2020/12/05 03:44:43;;;;;;;46.10;27.52;;;;;;;1.94;100.00;98415.69;5226337;28;20029;-78
2020/12/05 03:47:13;;;;;;;44.97;27.48;;;;;;;1.80;100.00;98410.22;5225801;28;20695;-76
2020/12/05 03:49:43;;;;;;;45.25;26.90;;;;;;;1.73;100.00;98421.59;5224919;28;20109;-77
2020/12/05 03:52:15;;;;;;;44.38;27.08;;;;;;;1.70;100.00;98426.00;5225249;28;20035;-77
2020/12/05 03:54:46;;;;;;;44.45;27.15;;;;;;;1.69;100.00;98445.78;5224592;28;20029;-77
2020/12/05 03:57:16;;;;;;;48.05;29.33;;;;;;;1.51;100.00;98446.41;5224273;28;20078;-77
2020/12/05 03:59:46;;;;;;;48.58;29.45;;;;;;;1.53;100.00;98459.19;5223848;28;20021;-77
2020/12/05 04:02:16;;;;;;;49.08;29.80;;;;;;;1.54;100.00;98482.31;5224623;28;20605;-78
2020/12/05 04:04:47;;;;;;;50.63;30.42;;;;;;;1.55;100.00;98486.56;5224022;28;20033;-78
2020/12/05 04:07:17;;;;;;;47.20;28.92;;;;;;;1.63;100.00;98492.31;5223845;28;20025;-78
2020/12/05 04:09:47;;;;;;;45.58;28.48;;;;;;;1.51;100.00;98479.84;5223992;28;20448;-78
2020/12/05 04:12:17;;;;;;;45.42;29.15;;;;;;;1.63;100.00;98474.31;5224143;28;20036;-78
2020/12/05 04:14:48;;;;;;;46.55;28.75;;;;;;;1.82;100.00;98486.47;5224155;28;20028;-77
2020/12/05 04:17:18;;;;;;;47.30;29.17;;;;;;;1.57;100.00;98497.66;5224283;28;20157;-78
2020/12/05 04:19:49;;;;;;;48.20;28.48;;;;;;;1.54;100.00;98499.50;5225400;28;20514;-76
2020/12/05 04:22:19;;;;;;;45.47;27.45;;;;;;;1.74;100.00;98530.56;5223702;28;20028;-77
2020/12/05 04:24:49;;;;;;;44.78;27.33;;;;;;;1.50;100.00;98515.91;5224462;28;20029;-77
2020/12/05 04:27:19;;;;;;;45.80;28.13;;;;;;;1.53;100.00;98514.09;5224376;28;20017;-77
2020/12/05 04:29:51;;;;;;;42.50;27.50;;;;;;;1.60;100.00;98497.53;5224207;28;20039;-78
2020/12/05 04:32:21;;;;;;;44.72;27.40;;;;;;;1.68;100.00;98516.16;5225362;28;20020;-77
2020/12/05 04:34:51;;;;;;;46.88;28.98;;;;;;;1.48;100.00;98502.25;5224923;28;20025;-77
2020/12/05 04:37:22;;;;;;;45.05;27.13;;;;;;;1.70;100.00;98498.94;5224258;28;20025;-77
2020/12/05 04:39:53;;;;;;;47.83;28.75;;;;;;;1.63;100.00;98512.06;5223961;28;20021;-77
2020/12/05 04:42:23;;;;;;;51.42;29.10;;;;;;;1.45;100.00;98523.81;5223320;28;20028;-77
2020/12/05 04:44:54;;;;;;;43.97;27.38;;;;;;;1.77;100.00;98541.56;5225627;28;20499;-77
2020/12/05 04:47:25;;;;;;;48.92;28.80;;;;;;;1.66;100.00;98574.56;5224205;28;20032;-78
2020/12/05 04:49:56;;;;;;;44.03;26.88;;;;;;;1.59;100.00;98577.38;5225361;28;20060;-78
2020/12/05 04:52:47;;;;;;;44.45;26.48;;;;;;;1.75;100.00;98576.81;5225603;28;20017;-77
2020/12/05 04:55:27;;;;;;;42.72;28.05;;;;;;;1.46;100.00;98556.34;5225079;28;20041;-77
2020/12/05 04:57:59;;;;;;;42.65;27.83;;;;;;;1.51;100.00;98559.63;5224469;28;20074;-78
2020/12/05 05:00:29;;;;;;;46.78;28.27;;;;;;;1.61;100.00;98540.41;5223795;28;20112;-78
2020/12/05 05:03:08;;;;;;;48.67;28.90;;;;;;;1.59;100.00;98525.91;5223716;28;20158;-77
2020/12/05 05:05:38;;;;;;;46.80;29.20;;;;;;;1.60;100.00;98525.84;5222580;28;20029;-77
2020/12/05 05:08:12;;;;;;;48.70;28.90;;;;;;;1.61;100.00;98524.13;5223782;28;20044;-77
2020/12/05 05:10:42;;;;;;;47.58;28.52;;;;;;;1.58;100.00;98525.06;5220734;28;20372;-77
2020/12/05 05:13:22;;;;;;;50.92;29.17;;;;;;;1.49;100.00;98515.09;5222957;28;20028;-77
2020/12/05 05:15:52;;;;;;;47.58;29.35;;;;;;;1.57;100.00;98507.13;5222918;28;20024;-77
2020/12/05 05:18:23;;;;;;;45.50;28.08;;;;;;;1.55;100.00;98517.44;5224032;28;20029;-77
2020/12/05 05:20:53;;;;;;;46.45;28.00;;;;;;;1.53;100.00;98516.66;5223867;28;20025;-77
2020/12/05 05:23:23;;;;;;;45.30;28.65;;;;;;;1.55;100.00;98508.91;5223673;28;20044;-76
2020/12/05 05:25:55;;;;;;;47.80;29.52;;;;;;;1.53;100.00;98519.22;5223139;28;20033;-76
2020/12/05 05:28:40;;;;;;;48.55;28.90;;;;;;;1.74;100.00;98531.38;5223474;28;20105;-77
2020/12/05 05:31:20;;;;;;;45.10;27.98;;;;;;;1.86;100.00;98546.44;5203393;28;20116;-77
2020/12/05 05:33:53;;;;;;;42.13;26.38;;;;;;;1.61;100.00;98529.28;5202540;28;20660;-77
2020/12/05 05:36:26;;;;;;;48.95;27.65;;;;;;;1.84;100.00;98548.22;5214039;28;20100;-77
2020/12/05 05:38:58;;;;;;;47.28;28.13;;;;;;;1.78;100.00;98548.41;5223921;28;20029;-77
2020/12/05 05:41:29;;;;;;;44.70;26.88;;;;;;;1.97;100.00;98559.81;5227273;28;20761;-77
2020/12/05 05:44:03;;;;;;;47.67;27.70;;;;;;;1.77;100.00;98539.00;5222868;28;20088;-77
2020/12/05 05:46:42;;;;;;;46.95;28.80;;;;;;;1.75;100.00;98548.50;5227167;28;20045;-77
2020/12/05 05:49:15;;;;;;;52.72;30.60;;;;;;;1.62;100.00;98529.25;5227243;28;20064;-77
2020/12/05 05:51:49;;;;;;;47.08;27.85;;;;;;;1.58;100.00;98555.94;5227079;28;20102;-78
2020/12/05 05:54:28;;;;;;;48.33;28.33;;;;;;;1.62;100.00;98529.25;5227508;28;20012;-77
2020/12/05 05:57:03;;;;;;;46.47;28.02;;;;;;;1.60;100.00;98537.91;5228055;28;20087;-77
2020/12/05 05:59:35;;;;;;;;;;;;;;;1.61;100.00;98535.25;5226978;28;20048;-78
2020/12/05 06:02:08;;;;;;;42.80;26.85;;;;;;;1.51;100.00;98538.19;5228341;28;20328;-78
2020/12/05 06:04:41;;;;;;;47.00;28.08;;;;;;;1.49;100.00;98558.81;5228305;28;20029;-77
2020/12/05 06:07:16;;;;;;;46.17;28.50;;;;;;;1.49;100.00;98561.41;5227286;28;20037;-78
2020/12/05 06:09:49;;;;;;;45.17;28.52;;;;;;;1.58;100.00;98568.81;5226643;28;20059;-77
2020/12/05 06:12:22;;;;;;;49.55;28.90;;;;;;;1.48;100.00;98574.31;5232194;28;20017;-78
2020/12/05 06:14:54;;;;;;;47.50;29.77;;;;;;;1.49;100.00;98592.28;5229062;28;20112;-76
2020/12/05 06:17:25;;;;;;;44.38;28.58;;;;;;;1.40;100.00;98589.97;5229735;28;20032;-77
2020/12/05 06:19:56;;;;;;;45.90;27.55;;;;;;;1.29;100.00;98584.34;5228667;28;20025;-77
2020/12/05 06:23:02;;;;;;;46.97;28.45;;;;;;;1.46;100.00;98581.22;5227419;28;20028;-77
2020/12/05 06:25:34;;;;;;;49.80;29.05;;;;;;;1.33;100.00;98601.34;5163365;28;20034;-77
2020/12/05 06:28:11;;;;;;;48.03;28.70;;;;;;;1.12;100.00;98586.56;5216711;28;20082;-77
2020/12/05 06:30:46;;;;;;;46.28;28.35;;;;;;;1.14;100.00;98579.66;5227398;28;20078;-77
2020/12/05 06:33:37;;;;;;;48.13;29.05;;;;;;;1.30;100.00;98574.88;5227562;28;20024;-78
2020/12/05 06:36:26;;;;;;;49.95;29.80;;;;;;;1.24;100.00;98559.66;5227208;28;20079;-77
2020/12/05 06:39:05;;;;;;;49.38;29.50;;;;;;;1.25;100.00;98554.44;5226425;28;20017;-78
2020/12/05 06:41:37;;;;;;;48.70;29.45;;;;;;;1.10;100.00;98564.34;5229099;28;20029;-77
2020/12/05 06:44:13;;;;;;;48.85;30.15;;;;;;;1.16;100.00;98531.59;5217883;28;20025;-77
2020/12/05 06:47:02;;;;;;;50.55;31.20;;;;;;;1.27;100.00;98550.06;5238123;22;20453;-82
2020/12/05 06:49:35;;;;;;;49.38;30.15;;;;;;;1.29;100.00;98581.78;5267220;28;20093;-83
2020/12/05 06:52:24;;;;;;;49.58;30.67;;;;;;;1.31;100.00;98600.56;5247626;28;20124;-81
2020/12/05 06:54:55;;;;;;;47.72;28.27;;;;;;;1.41;100.00;98614.00;5246847;28;20371;-80
2020/12/05 06:57:27;;;;;;;48.90;28.58;;;;;;;1.45;100.00;98608.72;5237185;28;20063;-81
2020/12/05 07:00:24;;;;;;;50.40;29.15;;;;;;;1.49;100.00;98620.56;5239748;28;20111;-80
2020/12/05 07:03:01;;;;;;;46.30;28.42;;;;;;;1.49;100.00;98617.16;5247302;28;20040;-81
2020/12/05 07:05:41;;;;;;;49.40;30.02;;;;;;;1.43;100.00;98613.03;5247937;28;20039;-81
2020/12/05 07:08:24;;;;;;;54.60;31.05;;;;;;;1.58;100.00;98601.44;5247430;28;20029;-79
2020/12/05 07:10:56;;;;;;;49.17;29.33;;;;;;;1.59;100.00;98639.16;5247449;28;20043;-81
2020/12/05 07:13:43;;;;;;;50.67;29.77;;;;;;;1.51;100.00;98647.09;5245845;28;20393;-81
2020/12/05 07:16:24;;;;;;;46.55;28.60;;;;;;;1.59;100.00;98670.84;5248112;28;20100;-80
2020/12/05 07:18:59;;;;;;;48.90;30.75;;;;;;;1.52;100.00;98676.22;5247586;28;20469;-84
2020/12/05 07:21:30;;;;;;;44.28;28.60;;;;;;;1.61;100.00;98674.22;5248913;28;20032;-80
2020/12/05 07:24:00;;;;;;;49.30;29.80;;;;;;;1.54;100.00;98693.31;5234460;28;20455;-80
2020/12/05 07:26:33;;;;;;;54.40;32.22;;;;;;;1.59;100.00;98713.78;5247330;28;20090;-82
2020/12/05 07:29:04;;;;;;;52.83;30.98;;;;;;;1.52;100.00;98730.28;5246879;28;20029;-81
2020/12/05 07:31:34;;;;;;;52.17;32.15;;;;;;;1.55;100.00;98749.06;5246557;28;20032;-82
2020/12/05 07:34:05;;;;;;;48.65;29.58;;;;;;;1.75;100.00;98753.63;5246833;28;20025;-80
2020/12/05 07:36:38;;;;;;;47.03;28.98;;;;;;;1.64;100.00;98782.25;5235293;28;20032;-82
2020/12/05 07:39:09;;;;;;;45.70;27.27;;;;;;;1.84;100.00;98800.53;5245017;28;20056;-80
2020/12/05 07:41:39;;;;;;;43.88;28.08;;;;;;;1.70;100.00;98784.66;5246112;28;20067;-80
2020/12/05 07:44:10;;;;;;;49.92;28.63;;;;;;;1.64;100.00;98781.41;5242517;28;20092;-80
2020/12/05 07:46:41;;;;;;;51.05;30.13;;;;;;;1.64;100.00;98795.13;5241706;28;20024;-80
2020/12/05 07:49:11;;;;;;;48.35;28.63;;;;;;;2.01;100.00;98799.13;5245646;28;20020;-81
2020/12/05 07:51:42;;;;;;;45.65;27.67;;;;;;;1.94;100.00;98797.66;5239117;28;20032;-80
2020/12/05 07:54:12;;;;;;;47.67;27.52;;;;;;;2.10;100.00;98824.63;5243787;28;20670;-79
2020/12/05 07:56:43;;;;;;;46.22;26.88;;;;;;;2.04;100.00;98826.53;5245255;28;20035;-80
2020/12/05 07:59:13;;;;;;;49.17;28.33;;;;;;;1.71;100.00;98809.50;5245098;28;20033;-82
2020/12/05 08:01:58;;;;;;;46.55;29.08;;;;;;;1.65;100.00;98771.06;5245083;28;20603;-82
2020/12/05 08:04:35;;;;;;;51.97;30.13;;;;;;;1.63;100.00;98764.28;5245473;28;20424;-80
2020/12/05 08:07:15;;;;;;;44.78;28.02;;;;;;;1.88;100.00;98776.38;5243158;28;20032;-85
2020/12/05 08:09:46;;;;;;;46.78;28.55;;;;;;;2.07;100.00;98801.53;5245045;28;20098;-79
2020/12/05 08:12:40;;;;;;;44.17;27.10;;;;;;;2.04;100.00;98860.03;5245392;28;20119;-84
2020/12/05 08:15:20;;;;;;;47.33;27.52;;;;;;;1.80;100.00;98861.56;5244332;28;20036;-79
2020/12/05 08:17:51;;;;;;;44.13;27.45;;;;;;;1.88;100.00;98877.66;5245424;28;20569;-80
2020/12/05 08:20:22;;;;;;;49.33;30.05;;;;;;;1.62;100.00;98871.53;5244874;28;20137;-79
2020/12/05 08:22:52;;;;;;;49.55;28.85;;;;;;;1.61;100.00;98874.97;5244805;28;20496;-80
2020/12/05 08:25:22;;;;;;;46.38;28.50;;;;;;;1.59;100.00;98870.78;5244082;28;20028;-79
2020/12/05 08:27:54;;;;;;;46.83;27.50;;;;;;;1.67;100.00;98877.41;5241961;28;20382;-82
2020/12/05 08:30:25;;;;;;;46.05;27.67;;;;;;;1.68;100.00;98886.81;5244508;28;20024;-77
2020/12/05 08:33:02;;;;;;;46.35;27.83;;;;;;;1.62;100.00;98907.59;5244036;28;20104;-80
2020/12/05 08:35:33;;;;;;;45.03;27.50;;;;;;;1.70;100.00;98912.50;5244396;28;20082;-77
2020/12/05 08:38:03;;;;;;;47.75;29.13;;;;;;;1.57;100.00;98918.88;5244163;28;20420;-78
2020/12/05 08:40:34;;;;;;;43.80;27.35;;;;;;;1.64;100.00;98917.81;5243991;28;20025;-77
2020/12/05 08:43:04;;;;;;;47.03;28.50;;;;;;;1.54;100.00;98929.25;5244691;28;20032;-77
2020/12/05 08:45:39;;;;;;;44.13;27.30;;;;;;;1.65;100.00;98922.06;5244118;28;20032;-78
2020/12/05 08:48:17;;;;;;;46.28;28.70;;;;;;;1.72;100.00;98914.16;5244403;28;20025;-78
2020/12/05 08:50:47;;;;;;;46.15;27.77;;;;;;;1.71;100.00;98922.75;5243593;28;20020;-81
2020/12/05 08:53:21;;;;;;;45.05;27.02;;;;;;;1.90;100.00;98918.78;5238764;28;20074;-79
2020/12/05 08:55:51;;;;;;;44.58;25.85;;;;;;;1.86;100.00;98914.63;5243189;28;20706;-81
2020/12/05 08:58:21;;;;;;;46.47;26.17;;;;;;;1.79;100.00;98918.28;5243674;28;20032;-81
2020/12/05 09:00:52;;;;;;;41.55;25.40;;;;;;;1.69;100.00;98937.41;5244297;28;20444;-80
2020/12/05 09:03:23;;;;;;;42.80;26.15;;;;;;;1.89;100.00;98966.03;5244012;28;20393;-80
2020/12/05 09:05:53;;;;;;;43.25;25.95;;;;;;;1.88;100.00;98957.47;5242703;28;20027;-77
2020/12/05 09:08:24;;;;;;;42.75;26.65;;;;;;;2.11;100.00;98954.25;5227728;28;20024;-79
2020/12/05 09:10:54;;;;;;;47.42;26.77;;;;;;;2.12;100.00;98959.38;5241816;28;20033;-79
2020/12/05 09:13:25;;;;;;;42.60;26.38;;;;;;;2.20;100.00;98975.44;5243594;28;20020;-82
2020/12/05 09:16:02;;;;;;;43.17;26.15;;;;;;;2.07;100.00;98981.00;5244023;28;20024;-79
2020/12/05 09:18:50;;;;;;;43.70;26.30;;;;;;;1.91;100.00;98966.84;5238578;28;20090;-79
2020/12/05 09:21:20;;;;;;;44.20;27.60;;;;;;;1.94;100.00;98983.06;5247648;28;20020;-79
2020/12/05 09:24:02;;;;;;;44.78;26.50;;;;;;;2.19;100.00;98994.38;5245943;28;20035;-80
2020/12/05 09:26:33;;;;;;;42.22;25.00;;;;;;;2.12;100.00;99003.16;5244548;28;20029;-81
2020/12/05 09:29:03;;;;;;;43.25;26.48;;;;;;;2.24;100.00;98999.41;5241402;28;20036;-79
2020/12/05 09:31:34;;;;;;;45.72;26.65;;;;;;;2.20;100.00;99006.38;5246131;28;20445;-82
2020/12/05 09:34:04;;;;;;;44.20;26.92;;;;;;;2.14;100.00;99010.88;5241150;28;20051;-84
2020/12/05 09:36:36;;;;;;;44.10;26.20;;;;;;;2.08;100.00;99005.84;5239766;28;20520;-81
2020/12/05 09:39:08;;;;;;;44.05;25.92;;;;;;;2.03;100.00;99012.88;5247242;28;20021;-81
2020/12/05 09:41:42;;;;;;;44.88;25.83;;;;;;;2.10;100.00;99024.69;5247802;28;20024;-81
2020/12/05 09:44:13;;;;;;;38.88;24.65;;;;;;;2.27;100.00;99030.22;5247008;28;20104;-80
2020/12/05 09:46:44;;;;;;;38.85;23.70;;;;;;;2.50;100.00;99030.47;5247424;28;20036;-79
2020/12/05 09:49:14;;;;;;;36.65;22.35;;;;;;;2.50;100.00;99017.56;5247397;28;20020;-81
2020/12/05 09:51:44;;;;;;;30.35;18.13;;;;;;;2.75;100.00;99028.84;5246927;28;20025;-81
2020/12/05 09:54:15;;;;;;;27.88;16.98;;;;;;;2.95;100.00;99021.38;5246460;28;20024;-80
2020/12/05 09:56:48;;;;;;;26.30;14.77;;;;;;;3.23;100.00;99037.72;5246909;28;20417;-79
2020/12/05 09:59:18;;;;;;;26.50;14.90;;;;;;;3.51;100.00;99025.63;5246923;28;20074;-79
2020/12/05 10:01:49;;;;;;;27.38;14.93;;;;;;;3.65;100.00;99032.84;5245852;28;20557;-80
2020/12/05 10:04:19;;;;;;;24.17;14.88;;;;;;;3.92;99.27;99033.72;5246489;28;20466;-80
2020/12/05 10:06:49;;;;;;;23.25;14.13;;;;;;;3.98;99.15;99042.06;5247024;28;20108;-79
2020/12/05 10:09:20;;;;;;;21.13;13.20;;;;;;;4.19;99.53;99028.44;5246742;28;20685;-80
2020/12/05 10:11:50;;;;;;;22.48;13.73;;;;;;;4.25;98.54;99028.22;5245633;28;20026;-82
2020/12/05 10:14:21;;;;;;;25.50;13.40;;;;;;;4.36;98.34;99031.28;5247197;28;20060;-81
2020/12/05 10:16:51;;;;;;;20.02;12.13;;;;;;;4.50;97.11;99023.84;5247025;28;20385;-79
2020/12/05 10:19:21;;;;;;;18.83;11.75;;;;;;;4.45;96.56;99035.28;5246948;28;20489;-80
2020/12/05 10:21:52;;;;;;;21.17;11.98;;;;;;;4.52;97.39;99027.25;5246622;28;20024;-83
2020/12/05 10:24:22;;;;;;;18.52;11.68;;;;;;;4.68;96.59;99007.69;5246398;28;20093;-80
2020/12/05 10:26:53;;;;;;;21.20;12.32;;;;;;;4.58;96.13;99011.50;5246789;28;20078;-80
2020/12/05 10:29:24;;;;;;;20.75;12.38;;;;;;;4.67;95.70;99013.72;5246231;28;20029;-79
2020/12/05 10:31:54;;;;;;;17.63;11.10;;;;;;;4.60;96.25;99007.09;5246613;28;20025;-81
2020/12/05 10:34:25;;;;;;;20.52;12.57;;;;;;;4.64;96.84;99019.03;5246289;28;20059;-81
2020/12/05 10:36:55;;;;;;;23.38;13.05;;;;;;;4.82;95.04;99022.69;5246274;28;20056;-81
2020/12/05 10:39:25;;;;;;;20.80;13.30;;;;;;;5.07;94.48;99037.22;5246416;28;20020;-81
2020/12/05 10:41:56;;;;;;;20.75;12.57;;;;;;;4.86;95.41;99026.84;5246666;28;20039;-80
2020/12/05 10:44:26;;;;;;;19.17;12.02;;;;;;;5.13;93.50;99007.69;5247126;28;20100;-80
2020/12/05 10:46:56;;;;;;;18.20;11.50;;;;;;;5.06;93.11;99003.63;5246597;28;20032;-80
2020/12/05 10:49:28;;;;;;;19.45;11.02;;;;;;;5.17;94.44;99002.31;5246169;28;20071;-79
2020/12/05 10:51:58;;;;;;;16.70;10.95;;;;;;;4.92;95.86;98998.13;5246627;28;20033;-81
2020/12/05 10:54:29;;;;;;;18.02;10.60;;;;;;;4.85;96.66;99005.31;5245992;28;20555;-79
2020/12/05 10:57:00;;;;;;;17.05;11.18;;;;;;;4.85;97.27;99019.97;5246210;28;20031;-80
2020/12/05 10:59:30;;;;;;;14.18;8.82;;;;;;;5.16;97.05;99026.50;5246066;28;20020;-84
2020/12/05 11:02:00;;;;;;;14.77;8.35;;;;;;;5.36;95.52;99023.97;5245682;28;20032;-80
2020/12/05 11:04:30;;;;;;;12.73;8.35;;;;;;;5.39;95.64;99029.06;5246069;28;20531;-80
2020/12/05 11:07:01;;;;;;;12.73;8.40;;;;;;;5.33;95.72;99026.69;5245844;28;20025;-79
2020/12/05 11:09:31;;;;;;;13.93;8.77;;;;;;;5.53;94.74;99037.09;5245351;28;20028;-80
2020/12/05 11:12:01;;;;;;;13.02;8.20;;;;;;;5.52;95.18;99050.97;5245469;28;20551;-80
2020/12/05 11:14:31;;;;;;;13.00;8.25;;;;;;;5.40;96.45;99046.28;5245083;28;20027;-82
2020/12/05 11:17:02;;;;;;;15.65;9.65;;;;;;;5.24;97.21;99058.13;5245523;28;20132;-82
2020/12/05 11:19:32;;;;;;;15.32;10.20;;;;;;;5.22;97.68;99054.78;5244204;28;20051;-80
2020/12/05 11:22:02;;;;;;;15.18;9.80;;;;;;;5.27;97.24;99059.75;5243681;28;20032;-81
2020/12/05 11:24:32;;;;;;;17.48;10.13;;;;;;;5.29;97.71;99065.75;5245243;28;20024;-83
2020/12/05 11:27:03;;;;;;;15.40;9.88;;;;;;;5.30;98.24;99070.00;5245463;28;20038;-82
2020/12/05 11:29:33;;;;;;;14.20;9.50;;;;;;;5.21;99.61;99068.63;5245721;28;20096;-80
2020/12/05 11:32:03;;;;;;;16.10;9.30;;;;;;;5.16;99.77;99075.69;5245868;28;20689;-79
2020/12/05 11:34:34;;;;;;;14.43;9.07;;;;;;;5.28;100.00;99080.41;5245430;28;20021;-80
2020/12/05 11:37:04;;;;;;;16.15;8.82;;;;;;;5.33;99.33;99075.91;5245534;28;20043;-80
2020/12/05 11:39:34;;;;;;;12.55;8.98;;;;;;;5.29;99.18;99087.28;5245379;28;20024;-79
2020/12/05 11:42:05;;;;;;;13.05;8.57;;;;;;;5.26;99.59;99100.34;5245090;28;20028;-79
2020/12/05 11:44:35;;;;;;;15.00;9.30;;;;;;;5.22;100.00;99093.59;5245288;28;20060;-79